Time;durP1;ratioP1;P1;durP2;ratioP2;P2;SDS_P1;SDS_P2;PMS_P1;PMS_P2;Temp;Humidity;BMP_temperature;BMP_pressure;BME280_temperature;BME280_humidity;BME280_pressure;Samples;Min_cycle;Max_cycle;Signal;HPM_P1;HPM_P2
2021/07/07 00:00:09;;;;;;;8.47;4.10;;;20.90;59.50;;;;;;4998510;28;20447;-87
2021/07/07 00:02:36;;;;;;;9.80;3.77;;;20.50;61.60;;;;;;4997845;28;20463;-87
2021/07/07 00:05:04;;;;;;;7.80;3.63;;;20.50;60.70;;;;;;4998457;28;20446;-87
2021/07/07 00:07:32;;;;;;;24.77;4.30;;;20.70;60.40;;;;;;4999381;28;20798;-87
2021/07/07 00:09:59;;;;;;;5.80;4.13;;;21.00;59.60;;;;;;4997807;28;20505;-88
2021/07/07 00:12:26;;;;;;;11.03;4.20;;;21.00;59.60;;;;;;4997246;28;20494;-88
2021/07/07 00:14:53;;;;;;;5.90;3.30;;;21.00;59.50;;;;;;4998429;28;20512;-88
2021/07/07 00:17:20;;;;;;;7.53;3.50;;;21.20;59.00;;;;;;4998297;28;20482;-88
2021/07/07 00:19:47;;;;;;;5.90;4.27;;;21.30;58.00;;;;;;4998332;28;20463;-88
2021/07/07 00:22:14;;;;;;;12.33;4.40;;;21.50;57.50;;;;;;5010356;28;20532;-87
2021/07/07 00:24:42;;;;;;;9.53;4.60;;;21.60;57.30;;;;;;5015277;28;20459;-87
2021/07/07 00:27:10;;;;;;;9.03;4.80;;;21.80;56.90;;;;;;5008291;28;20462;-87
2021/07/07 00:29:36;;;;;;;10.83;4.07;;;22.00;56.30;;;;;;4999190;28;20505;-88
2021/07/07 00:32:04;;;;;;;10.17;5.10;;;21.90;56.60;;;;;;4999365;28;20483;-88
2021/07/07 00:34:31;;;;;;;12.47;4.80;;;21.90;56.50;;;;;;5000789;28;20445;-88
2021/07/07 00:36:58;;;;;;;12.73;3.90;;;22.00;56.30;;;;;;5014135;28;20486;-88
2021/07/07 00:39:25;;;;;;;18.63;4.40;;;22.00;56.10;;;;;;4998107;28;20478;-88
2021/07/07 00:41:53;;;;;;;13.17;5.97;;;21.80;56.40;;;;;;4998239;28;20471;-88
2021/07/07 00:44:20;;;;;;;11.63;5.53;;;21.80;57.10;;;;;;4998494;28;20521;-88
2021/07/07 00:46:47;;;;;;;12.57;6.00;;;22.00;56.20;;;;;;4998401;28;20478;-88
2021/07/07 00:49:16;;;;;;;6.13;4.10;;;22.10;56.20;;;;;;4998323;28;20490;-88
2021/07/07 00:51:43;;;;;;;11.50;5.27;;;21.80;56.30;;;;;;4998214;28;21150;-89
2021/07/07 00:54:11;;;;;;;5.33;3.70;;;21.90;56.30;;;;;;4999103;28;20782;-88
2021/07/07 00:56:38;;;;;;;5.00;3.50;;;21.70;57.10;;;;;;4998287;28;20533;-88
2021/07/07 00:59:09;;;;;;;4.80;3.67;;;21.90;56.30;;;;;;4997204;28;20542;-88
2021/07/07 01:01:36;;;;;;;8.70;3.60;;;21.80;57.20;;;;;;4996395;28;20529;-88
2021/07/07 01:04:04;;;;;;;7.27;3.50;;;21.80;56.80;;;;;;4997508;28;20451;-88
2021/07/07 01:06:30;;;;;;;7.80;4.03;;;21.70;57.10;;;;;;4997659;28;20501;-88
2021/07/07 01:08:57;;;;;;;9.93;3.87;;;21.70;56.60;;;;;;4997052;28;20505;-88
2021/07/07 01:11:24;;;;;;;7.00;3.60;;;21.90;56.10;;;;;;4997863;28;20455;-88
2021/07/07 01:13:51;;;;;;;5.63;4.07;;;22.10;55.80;;;;;;4997723;28;20845;-88
2021/07/07 01:16:19;;;;;;;6.83;4.30;;;22.10;56.00;;;;;;4997243;28;20660;-88
2021/07/07 01:18:46;;;;;;;12.83;3.70;;;22.00;56.20;;;;;;4997510;28;20802;-88
2021/07/07 01:21:14;;;;;;;17.40;4.20;;;22.10;56.10;;;;;;4996933;28;20860;-88
2021/07/07 01:23:42;;;;;;;7.70;4.57;;;22.30;55.60;;;;;;4996679;28;20541;-88
2021/07/07 01:26:09;;;;;;;10.33;5.53;;;22.20;55.50;;;;;;4997358;28;20526;-88
2021/07/07 01:28:36;;;;;;;10.73;4.37;;;22.00;55.80;;;;;;5006101;28;20461;-88
2021/07/07 01:31:04;;;;;;;11.90;4.90;;;22.00;56.50;;;;;;5015977;28;20438;-88
2021/07/07 01:33:31;;;;;;;12.53;4.20;;;22.00;56.20;;;;;;5014692;28;20508;-88
2021/07/07 01:35:58;;;;;;;5.20;4.40;;;22.20;55.70;;;;;;4996069;28;20573;-89
2021/07/07 01:38:25;;;;;;;8.53;4.37;;;22.10;55.30;;;;;;4996204;28;20509;-89
2021/07/07 01:40:55;;;;;;;8.00;4.40;;;21.90;55.80;;;;;;4996269;28;20514;-89
2021/07/07 01:43:22;;;;;;;10.80;5.07;;;21.90;55.90;;;;;;4996610;28;20470;-88
2021/07/07 01:45:49;;;;;;;4.60;3.77;;;21.80;55.90;;;;;;5016326;28;21043;-88
2021/07/07 01:48:16;;;;;;;9.70;5.10;;;21.70;56.20;;;;;;5016421;28;20614;-88
2021/07/07 01:50:43;;;;;;;5.23;3.63;;;21.70;56.30;;;;;;5015104;28;20458;-88
2021/07/07 01:53:10;;;;;;;7.73;4.70;;;21.80;56.10;;;;;;4996233;28;20554;-88
2021/07/07 01:55:37;;;;;;;5.90;3.73;;;21.90;56.10;;;;;;4997413;28;20505;-88
2021/07/07 01:58:06;;;;;;;8.07;5.03;;;22.10;55.90;;;;;;4996817;28;20458;-87
2021/07/07 02:00:35;;;;;;;10.20;5.40;;;22.10;56.30;;;;;;4996414;28;20470;-87
2021/07/07 02:03:03;;;;;;;15.20;5.93;;;22.20;56.00;;;;;;4996093;28;20538;-87
2021/07/07 02:05:31;;;;;;;7.50;3.90;;;22.30;55.70;;;;;;4996714;28;20458;-87
2021/07/07 02:07:59;;;;;;;10.60;5.40;;;22.30;55.40;;;;;;4996500;28;20521;-87
2021/07/07 02:10:26;;;;;;;7.60;4.47;;;22.40;55.30;;;;;;4977483;28;20432;-87
2021/07/07 02:12:53;;;;;;;9.90;4.40;;;22.40;55.10;;;;;;4978062;28;20507;-88
2021/07/07 02:15:24;;;;;;;5.60;4.67;;;22.50;55.00;;;;;;5016847;28;20879;-88
2021/07/07 02:17:53;;;;;;;8.60;5.00;;;22.40;54.90;;;;;;4996463;28;20475;-88
2021/07/07 02:20:21;;;;;;;9.30;5.50;;;22.40;55.20;;;;;;4997807;28;20471;-88
2021/07/07 02:22:48;;;;;;;14.90;5.60;;;22.40;54.70;;;;;;5015786;28;20458;-87
2021/07/07 02:25:17;;;;;;;8.17;4.97;;;22.50;54.50;;;;;;5018331;28;20462;-88
2021/07/07 02:27:45;;;;;;;11.90;3.80;;;22.80;54.00;;;;;;5015907;28;20867;-88
2021/07/07 02:30:17;;;;;;;8.73;4.87;;;22.60;53.70;;;;;;4997310;28;20507;-89
2021/07/07 02:32:46;;;;;;;10.50;6.30;;;22.30;55.30;;;;;;4996501;28;20478;-88
2021/07/07 02:35:15;;;;;;;9.00;4.90;;;22.10;55.90;;;;;;4999430;28;20935;-88
2021/07/07 02:37:43;;;;;;;9.23;5.40;;;22.10;55.40;;;;;;4996061;28;20907;-88
2021/07/07 02:40:12;;;;;;;12.40;5.20;;;22.30;55.30;;;;;;5004259;28;20486;-87
2021/07/07 02:42:39;;;;;;;12.83;5.53;;;22.40;55.30;;;;;;4996293;28;20566;-87
2021/07/07 02:45:09;;;;;;;10.37;5.07;;;22.30;55.50;;;;;;4998677;28;20431;-88
2021/07/07 02:47:37;;;;;;;4.70;3.40;;;22.40;55.30;;;;;;4998175;28;20533;-88
2021/07/07 02:50:06;;;;;;;11.33;6.00;;;22.50;53.90;;;;;;5001237;28;20822;-88
2021/07/07 02:52:33;;;;;;;8.10;4.50;;;22.50;55.00;;;;;;4993633;28;20510;-87
2021/07/07 02:55:00;;;;;;;5.53;4.70;;;22.20;55.90;;;;;;4993927;28;20848;-88
2021/07/07 02:57:26;;;;;;;12.57;5.90;;;22.30;55.30;;;;;;4994005;28;20570;-88
2021/07/07 02:59:53;;;;;;;23.10;6.47;;;22.40;55.00;;;;;;4994191;28;20991;-88
2021/07/07 03:02:20;;;;;;;11.50;4.60;;;22.40;54.30;;;;;;4992858;28;20561;-87
2021/07/07 03:04:47;;;;;;;9.63;7.20;;;22.60;54.10;;;;;;4993671;28;20427;-87
2021/07/07 03:07:16;;;;;;;17.40;5.90;;;22.80;54.20;;;;;;4994208;28;20538;-87
2021/07/07 03:09:43;;;;;;;5.63;4.53;;;22.60;54.10;;;;;;4994236;28;20827;-87
2021/07/07 03:12:10;;;;;;;7.40;4.30;;;22.40;54.70;;;;;;4993691;28;20498;-88
2021/07/07 03:14:36;;;;;;;6.53;4.17;;;22.40;54.90;;;;;;4994419;28;20489;-88
2021/07/07 03:17:04;;;;;;;4.93;3.40;;;22.30;55.60;;;;;;4993813;28;20515;-88
2021/07/07 03:19:31;;;;;;;8.53;4.37;;;22.30;55.90;;;;;;4994008;28;20497;-88
2021/07/07 03:21:57;;;;;;;6.30;4.20;;;22.30;55.30;;;;;;4992116;28;20507;-88
2021/07/07 03:24:26;;;;;;;5.00;3.60;;;22.20;55.10;;;;;;4994070;28;20467;-88
2021/07/07 03:26:53;;;;;;;4.60;3.90;;;22.00;55.90;;;;;;4994439;28;20489;-88
2021/07/07 03:29:19;;;;;;;7.80;4.10;;;21.80;56.00;;;;;;4994757;28;20482;-88
2021/07/07 03:31:46;;;;;;;8.23;4.77;;;21.80;56.40;;;;;;4994046;28;20463;-88
2021/07/07 03:34:13;;;;;;;12.07;5.40;;;21.80;56.60;;;;;;5013349;28;20450;-88
2021/07/07 03:36:40;;;;;;;8.23;5.30;;;22.10;55.50;;;;;;5013147;28;20520;-86
2021/07/07 03:39:07;;;;;;;5.20;4.30;;;22.00;56.40;;;;;;4993813;28;20549;-87
2021/07/07 03:41:35;;;;;;;8.77;5.50;;;21.70;56.80;;;;;;4993236;28;20827;-87
2021/07/07 03:44:02;;;;;;;16.80;5.50;;;21.80;57.00;;;;;;4974216;28;20494;-87
2021/07/07 03:46:29;;;;;;;13.37;5.37;;;21.70;57.20;;;;;;4974229;28;20436;-86
2021/07/07 03:48:56;;;;;;;11.57;5.50;;;21.60;57.60;;;;;;4973726;28;20964;-87
2021/07/07 03:51:23;;;;;;;7.67;4.50;;;21.80;57.50;;;;;;4974401;28;20451;-87
2021/07/07 03:53:50;;;;;;;6.40;4.90;;;21.70;57.50;;;;;;5013058;28;20453;-88
2021/07/07 03:56:16;;;;;;;4.90;3.90;;;21.70;57.30;;;;;;4995174;28;20802;-88
2021/07/07 03:58:45;;;;;;;5.57;4.00;;;21.60;56.90;;;;;;4993943;28;20443;-88
2021/07/07 04:01:12;;;;;;;6.07;4.57;;;21.80;56.50;;;;;;4992774;28;20849;-87
2021/07/07 04:03:40;;;;;;;5.63;3.40;;;21.90;56.80;;;;;;4992878;28;20478;-88
2021/07/07 04:06:07;;;;;;;6.03;3.57;;;22.10;55.50;;;;;;5012137;28;20450;-87
2021/07/07 04:08:33;;;;;;;7.70;3.83;;;22.20;55.50;;;;;;5013857;28;20446;-88
2021/07/07 04:11:00;;;;;;;4.60;4.00;;;22.00;56.10;;;;;;5022735;28;20948;-87
2021/07/07 04:13:29;;;;;;;9.77;4.10;;;21.80;56.80;;;;;;4995921;28;20466;-87
2021/07/07 04:15:57;;;;;;;5.83;4.30;;;21.60;57.30;;;;;;4993994;28;20435;-87
2021/07/07 04:18:24;;;;;;;8.50;4.27;;;21.70;56.70;;;;;;4993704;28;20505;-87
2021/07/07 04:20:52;;;;;;;7.53;4.30;;;21.60;56.70;;;;;;4993603;28;20940;-87
2021/07/07 04:23:18;;;;;;;6.57;4.17;;;21.00;58.80;;;;;;4993415;28;20517;-88
2021/07/07 04:25:46;;;;;;;6.67;4.47;;;21.10;59.60;;;;;;4993518;28;20502;-87
2021/07/07 04:28:13;;;;;;;7.73;3.83;;;21.10;59.20;;;;;;4996733;28;20447;-87
2021/07/07 04:30:39;;;;;;;7.17;3.90;;;21.60;57.90;;;;;;5014545;28;20498;-86
2021/07/07 04:33:08;;;;;;;10.20;4.70;;;21.70;57.60;;;;;;5015834;28;20941;-86
2021/07/07 04:35:35;;;;;;;9.07;5.27;;;21.90;57.10;;;;;;4999080;28;20439;-87
2021/07/07 04:38:02;;;;;;;7.70;5.13;;;21.90;57.20;;;;;;4996316;28;20574;-87
2021/07/07 04:40:28;;;;;;;5.67;4.63;;;21.90;56.90;;;;;;4996878;28;20821;-87
2021/07/07 04:42:55;;;;;;;6.93;3.97;;;21.70;57.80;;;;;;4996635;28;20542;-87
2021/07/07 04:45:22;;;;;;;4.43;3.70;;;21.90;57.20;;;;;;4996760;28;21053;-87
2021/07/07 04:47:49;;;;;;;6.40;4.57;;;21.70;57.00;;;;;;5005356;28;20521;-87
2021/07/07 04:50:19;;;;;;;9.00;4.17;;;21.80;57.10;;;;;;5016052;28;20513;-88
2021/07/07 04:52:47;;;;;;;14.30;3.90;;;21.50;57.50;;;;;;5008152;28;20534;-88
2021/07/07 04:55:15;;;;;;;5.07;3.90;;;21.40;57.60;;;;;;4996669;28;20525;-87
2021/07/07 04:57:43;;;;;;;6.50;4.13;;;21.10;57.20;;;;;;4996442;28;20996;-87
2021/07/07 05:00:12;;;;;;;6.53;3.53;;;20.90;59.50;;;;;;4996827;28;20443;-87
2021/07/07 05:02:39;;;;;;;5.60;2.70;;;21.30;58.20;;;;;;5001052;28;20832;-88
2021/07/07 05:05:07;;;;;;;4.13;3.10;;;21.50;56.80;;;;;;5011780;28;20497;-88
2021/07/07 05:07:35;;;;;;;6.03;3.30;;;21.80;56.70;;;;;;4996658;28;20454;-88
2021/07/07 05:10:03;;;;;;;5.10;2.57;;;22.10;56.00;;;;;;4996457;28;20435;-88
2021/07/07 05:12:30;;;;;;;6.80;2.57;;;22.30;55.00;;;;;;5000911;28;20960;-88
2021/07/07 05:14:58;;;;;;;4.10;2.50;;;22.30;54.60;;;;;;5010822;28;20613;-88
2021/07/07 05:17:25;;;;;;;7.33;2.80;;;22.20;54.50;;;;;;4998078;28;20557;-88
2021/07/07 05:19:52;;;;;;;5.20;2.70;;;22.20;54.80;;;;;;4996977;28;20475;-88
2021/07/07 05:22:19;;;;;;;8.97;2.80;;;22.30;54.20;;;;;;4998553;28;20554;-89
2021/07/07 05:24:48;;;;;;;3.80;2.70;;;22.20;54.70;;;;;;5016739;28;20454;-89
2021/07/07 05:27:16;;;;;;;8.93;3.33;;;22.20;54.20;;;;;;5017321;28;20600;-89
2021/07/07 05:29:43;;;;;;;2.70;2.47;;;22.00;54.80;;;;;;5015493;28;20478;-88
2021/07/07 05:32:11;;;;;;;3.60;2.60;;;21.90;54.40;;;;;;5014131;28;20474;-88
2021/07/07 05:34:40;;;;;;;5.97;2.60;;;21.90;55.00;;;;;;4996400;28;20819;-88
2021/07/07 05:37:07;;;;;;;11.03;3.83;;;22.10;54.80;;;;;;4997044;28;20486;-87
2021/07/07 05:39:34;;;;;;;8.90;3.30;;;22.30;54.20;;;;;;4995920;28;21000;-88
2021/07/07 05:42:02;;;;;;;4.20;2.70;;;22.20;54.70;;;;;;4996426;28;20511;-88
2021/07/07 05:44:29;;;;;;;5.97;2.37;;;22.10;55.00;;;;;;4995844;28;20439;-88
2021/07/07 05:46:56;;;;;;;8.90;2.90;;;22.20;54.60;;;;;;4996612;28;20450;-88
2021/07/07 05:49:23;;;;;;;3.60;2.43;;;22.10;54.10;;;;;;4995929;28;20515;-88
2021/07/07 05:51:50;;;;;;;4.37;2.33;;;22.00;54.40;;;;;;4995421;28;20482;-88
2021/07/07 05:54:17;;;;;;;8.13;3.00;;;22.20;53.70;;;;;;4995259;28;20451;-88
2021/07/07 05:56:44;;;;;;;4.80;2.57;;;22.10;53.60;;;;;;4995241;28;20467;-88
2021/07/07 05:59:12;;;;;;;2.63;2.20;;;22.30;53.40;;;;;;4995438;28;20483;-88
2021/07/07 06:01:39;;;;;;;9.73;2.70;;;22.20;53.00;;;;;;4994888;28;20502;-89
2021/07/07 06:04:10;;;;;;;6.20;2.33;;;21.70;53.80;;;;;;4996545;28;20487;-88
2021/07/07 06:06:37;;;;;;;6.30;4.07;;;21.70;54.20;;;;;;4999143;28;20459;-88
2021/07/07 06:09:04;;;;;;;4.77;3.00;;;21.80;53.50;;;;;;4995966;28;20916;-88
2021/07/07 06:11:31;;;;;;;8.23;3.00;;;21.70;52.80;;;;;;4995409;28;20944;-87
2021/07/07 06:13:58;;;;;;;8.63;2.70;;;21.70;53.20;;;;;;4995422;28;20486;-88
2021/07/07 06:16:26;;;;;;;10.23;3.57;;;21.70;53.70;;;;;;4995103;28;20565;-87
2021/07/07 06:18:53;;;;;;;14.80;5.17;;;21.70;53.70;;;;;;4994936;28;20565;-88
2021/07/07 06:21:21;;;;;;;3.60;2.63;;;22.00;53.50;;;;;;4994844;28;20820;-88
2021/07/07 06:23:48;;;;;;;5.20;3.00;;;22.00;53.50;;;;;;4994978;28;20462;-87
2021/07/07 06:26:15;;;;;;;8.27;2.73;;;22.40;53.60;;;;;;4994715;28;20455;-88
2021/07/07 06:28:41;;;;;;;3.10;2.23;;;22.50;53.00;;;;;;4994695;28;20826;-87
2021/07/07 06:31:08;;;;;;;13.77;2.70;;;22.40;53.00;;;;;;4994717;28;20490;-88
2021/07/07 06:33:37;;;;;;;6.50;2.63;;;22.20;53.30;;;;;;4995115;28;20986;-87
2021/07/07 06:36:04;;;;;;;7.03;2.70;;;22.50;52.80;;;;;;4994794;28;21028;-88
2021/07/07 06:38:31;;;;;;;3.07;2.63;;;22.40;52.20;;;;;;4994995;28;20518;-88
2021/07/07 06:40:58;;;;;;;10.70;2.40;;;22.40;52.30;;;;;;4995541;28;20439;-88
2021/07/07 06:43:25;;;;;;;6.30;3.03;;;22.50;52.50;;;;;;5003073;28;20851;-88
2021/07/07 06:45:52;;;;;;;4.03;2.60;;;22.20;53.00;;;;;;5014347;28;20481;-88
2021/07/07 06:48:19;;;;;;;4.90;2.30;;;22.10;52.60;;;;;;5014261;28;20862;-88
2021/07/07 06:50:47;;;;;;;4.83;3.20;;;22.00;52.80;;;;;;5014400;28;20509;-88
2021/07/07 06:53:15;;;;;;;3.17;2.30;;;21.90;52.60;;;;;;5009193;28;20533;-88
2021/07/07 06:55:42;;;;;;;7.10;2.90;;;22.30;53.10;;;;;;4994496;28;20466;-88
2021/07/07 06:58:12;;;;;;;3.80;2.50;;;22.80;52.30;;;;;;4994851;28;20573;-88
2021/07/07 07:00:39;;;;;;;3.37;2.33;;;23.10;52.20;;;;;;4999096;28;20493;-88
2021/07/07 07:03:06;;;;;;;2.90;2.40;;;23.00;52.30;;;;;;5000250;28;20482;-88
2021/07/07 07:05:34;;;;;;;4.13;2.47;;;23.20;51.60;;;;;;4999857;28;20497;-88
2021/07/07 07:08:03;;;;;;;3.93;2.50;;;23.30;51.00;;;;;;5000627;28;20474;-87
2021/07/07 07:10:30;;;;;;;4.90;2.70;;;23.00;51.10;;;;;;5003869;28;20439;-88
2021/07/07 07:12:57;;;;;;;5.00;2.77;;;22.80;51.50;;;;;;5014616;28;20474;-88
2021/07/07 07:15:23;;;;;;;4.60;3.03;;;22.90;51.00;;;;;;5014961;28;20474;-87
2021/07/07 07:17:51;;;;;;;4.97;2.90;;;22.60;52.40;;;;;;5014158;28;20519;-87
2021/07/07 07:20:18;;;;;;;12.83;3.27;;;22.60;51.90;;;;;;5014496;28;20445;-88
2021/07/07 07:22:46;;;;;;;7.93;3.07;;;22.40;52.50;;;;;;5015237;28;20548;-88
2021/07/07 07:25:15;;;;;;;13.40;5.17;;;22.20;52.80;;;;;;5014977;28;20437;-89
2021/07/07 07:27:42;;;;;;;9.00;3.33;;;22.20;53.00;;;;;;5014152;28;20528;-88
2021/07/07 07:30:11;;;;;;;5.80;4.27;;;22.40;53.50;;;;;;5001144;28;20553;-88
2021/07/07 07:32:38;;;;;;;3.60;3.30;;;22.50;53.90;;;;;;4994355;28;20493;-88
2021/07/07 07:35:06;;;;;;;4.13;2.80;;;22.40;53.90;;;;;;4995381;28;20478;-88
2021/07/07 07:37:39;;;;;;;15.70;3.57;;;22.60;54.00;;;;;;4993875;28;20451;-88
2021/07/07 07:40:10;;;;;;;10.57;2.50;;;22.50;54.00;;;;;;4994459;28;20964;-88
2021/07/07 07:42:42;;;;;;;9.00;3.20;;;22.50;54.00;;;;;;4994407;28;20475;-88
2021/07/07 07:45:10;;;;;;;3.30;2.60;;;22.50;53.90;;;;;;4994378;28;20494;-88
2021/07/07 07:47:37;;;;;;;4.03;2.67;;;22.80;53.50;;;;;;4994518;28;20944;-87
2021/07/07 07:50:06;;;;;;;7.43;2.73;;;22.70;53.30;;;;;;4994223;28;20534;-88
2021/07/07 07:52:33;;;;;;;3.63;2.73;;;22.70;53.00;;;;;;4994607;28;20988;-88
2021/07/07 07:55:00;;;;;;;4.90;2.47;;;22.40;53.80;;;;;;4995262;28;20462;-87
2021/07/07 07:57:27;;;;;;;5.00;2.83;;;22.10;53.60;;;;;;4995348;28;20861;-87
2021/07/07 07:59:55;;;;;;;6.10;2.47;;;22.30;54.40;;;;;;4995274;28;20447;-87
2021/07/07 08:02:22;;;;;;;4.23;2.30;;;22.70;53.40;;;;;;4994650;28;20463;-88
2021/07/07 08:04:49;;;;;;;3.50;2.17;;;22.70;52.60;;;;;;4994982;28;20518;-87
2021/07/07 08:07:16;;;;;;;4.80;2.80;;;23.10;52.20;;;;;;4995942;28;20490;-88
2021/07/07 08:09:43;;;;;;;13.00;3.03;;;23.20;52.00;;;;;;4998499;28;20446;-88
2021/07/07 08:12:10;;;;;;;4.87;2.90;;;22.90;52.80;;;;;;4997771;28;20495;-88
2021/07/07 08:14:37;;;;;;;15.73;3.07;;;23.10;52.40;;;;;;4997363;28;20505;-88
2021/07/07 08:17:05;;;;;;;5.27;2.97;;;23.00;52.50;;;;;;4997533;28;20466;-87
2021/07/07 08:19:32;;;;;;;4.00;3.00;;;23.00;52.60;;;;;;5007340;28;20477;-87
2021/07/07 08:21:59;;;;;;;5.40;2.80;;;22.70;53.10;;;;;;5016649;28;21045;-87
2021/07/07 08:24:26;;;;;;;3.90;2.60;;;22.80;53.30;;;;;;5017857;28;20501;-87
2021/07/07 08:26:54;;;;;;;6.33;2.33;;;22.80;53.10;;;;;;5017402;28;20450;-87
2021/07/07 08:29:21;;;;;;;4.47;2.40;;;22.90;53.40;;;;;;5018423;28;20473;-88
2021/07/07 08:31:48;;;;;;;2.80;2.50;;;22.80;52.90;;;;;;5023528;28;20498;-87
2021/07/07 08:34:16;;;;;;;3.00;2.50;;;22.90;53.00;;;;;;5016086;28;20493;-87
2021/07/07 08:36:43;;;;;;;7.93;2.63;;;22.70;53.30;;;;;;5006840;28;20451;-87
2021/07/07 08:39:10;;;;;;;4.00;2.70;;;22.50;53.40;;;;;;5012429;28;20471;-87
2021/07/07 08:41:39;;;;;;;5.00;2.27;;;22.60;54.00;;;;;;5019582;28;20531;-87
2021/07/07 08:44:07;;;;;;;2.90;2.20;;;22.80;51.50;;;;;;5017712;28;20444;-87
2021/07/07 08:46:34;;;;;;;2.90;2.23;;;22.90;51.20;;;;;;5003585;28;20489;-87
2021/07/07 08:49:02;;;;;;;3.47;2.30;;;22.80;52.10;;;;;;5001859;28;20509;-87
2021/07/07 08:51:31;;;;;;;2.90;2.37;;;22.70;51.90;;;;;;5000866;28;20509;-87
2021/07/07 08:53:58;;;;;;;2.97;2.23;;;22.80;52.60;;;;;;5001533;28;20437;-86
2021/07/07 08:56:25;;;;;;;2.23;2.03;;;22.90;52.20;;;;;;5000221;28;20971;-86
2021/07/07 08:58:52;;;;;;;5.17;2.53;;;23.00;51.70;;;;;;4999948;28;20475;-87
2021/07/07 09:01:19;;;;;;;2.17;2.07;;;23.20;51.80;;;;;;4999093;28;20451;-87
2021/07/07 09:03:46;;;;;;;4.17;2.40;;;23.30;50.50;;;;;;4999822;28;20549;-87
2021/07/07 09:06:13;;;;;;;4.93;2.20;;;23.40;52.00;;;;;;5000839;28;20966;-86
2021/07/07 09:08:47;;;;;;;4.80;2.80;;;23.40;52.00;;;;;;4999925;28;20475;-87
2021/07/07 09:11:16;;;;;;;6.87;3.30;;;23.20;51.50;;;;;;5002193;28;20513;-86
2021/07/07 09:13:44;;;;;;;5.47;2.80;;;23.00;52.40;;;;;;5008662;28;20470;-87
2021/07/07 09:16:12;;;;;;;5.80;3.23;;;23.00;53.00;;;;;;5019431;28;20767;-86
2021/07/07 09:18:39;;;;;;;5.67;3.40;;;23.50;52.60;;;;;;5015686;28;20486;-87
2021/07/07 09:21:26;;;;;;;8.77;3.90;;;23.50;52.20;;;;;;5016813;28;20458;-87
2021/07/07 09:23:54;;;;;;;4.10;2.97;;;23.50;52.30;;;;;;5016801;28;20438;-87
2021/07/07 09:26:30;;;;;;;7.23;2.50;;;23.50;51.30;;;;;;5016234;28;20436;-87
2021/07/07 09:28:57;;;;;;;4.53;2.20;;;23.70;52.00;;;;;;5016142;28;20438;-87
2021/07/07 09:31:34;;;;;;;3.43;1.97;;;24.00;51.20;;;;;;5015936;28;20469;-87
2021/07/07 09:34:16;;;;;;;4.17;2.50;;;23.80;50.40;;;;;;5016228;28;20465;-88
2021/07/07 09:36:46;;;;;;;2.40;2.30;;;23.90;51.20;;;;;;5017085;28;20446;-87
2021/07/07 09:39:16;;;;;;;8.17;3.47;;;24.00;49.70;;;;;;5016129;28;20473;-87
2021/07/07 09:41:44;;;;;;;3.50;2.30;;;23.80;49.60;;;;;;5016470;28;20524;-87
2021/07/07 09:44:11;;;;;;;3.10;2.10;;;23.80;51.20;;;;;;5015421;28;20906;-86
2021/07/07 09:46:39;;;;;;;2.73;2.30;;;24.10;50.50;;;;;;5015762;28;20552;-86
2021/07/07 09:49:06;;;;;;;4.57;2.60;;;24.20;50.70;;;;;;5015375;28;20473;-85
2021/07/07 09:51:34;;;;;;;2.53;2.03;;;24.30;50.20;;;;;;5014950;28;20810;-86
2021/07/07 09:54:06;;;;;;;3.27;2.20;;;24.40;50.20;;;;;;5016972;28;20440;-89
2021/07/07 09:56:35;;;;;;;3.10;2.20;;;24.00;49.30;;;;;;5016015;28;20449;-89
2021/07/07 09:59:02;;;;;;;5.00;2.70;;;24.20;50.20;;;;;;5014976;28;20508;-89
2021/07/07 10:01:29;;;;;;;2.10;2.00;;;24.60;48.70;;;;;;5015450;28;20482;-89
2021/07/07 10:03:58;;;;;;;2.90;2.07;;;24.80;48.90;;;;;;5011010;28;20467;-89
2021/07/07 10:06:26;;;;;;;2.93;2.13;;;24.50;48.60;;;;;;5000383;28;21011;-89
2021/07/07 10:08:54;;;;;;;3.40;2.40;;;24.70;48.90;;;;;;5012239;28;20435;-89
2021/07/07 10:11:22;;;;;;;3.57;2.40;;;24.70;49.50;;;;;;4995451;28;20897;-89
2021/07/07 10:13:50;;;;;;;4.57;2.30;;;24.80;50.00;;;;;;4995403;28;20961;-89
2021/07/07 10:16:18;;;;;;;5.03;2.20;;;25.20;49.20;;;;;;4995495;28;21028;-89
2021/07/07 10:18:45;;;;;;;8.90;2.73;;;25.20;49.20;;;;;;4998122;28;20862;-89
2021/07/07 10:21:13;;;;;;;2.80;2.23;;;25.50;48.50;;;;;;5013964;28;20490;-89
2021/07/07 10:23:41;;;;;;;3.63;2.53;;;25.40;47.60;;;;;;5014565;28;20474;-89
2021/07/07 10:26:10;;;;;;;4.50;2.37;;;25.90;47.40;;;;;;5012283;28;20873;-89
2021/07/07 10:28:38;;;;;;;2.63;1.80;;;25.90;46.10;;;;;;4997622;28;20497;-89
2021/07/07 10:31:07;;;;;;;2.47;2.20;;;25.70;47.40;;;;;;5013536;28;20978;-89
2021/07/07 10:33:36;;;;;;;2.57;2.10;;;26.00;46.60;;;;;;5014893;28;20516;-89
2021/07/07 10:36:21;;;;;;;4.60;2.30;;;25.90;46.60;;;;;;5012682;28;20437;-89
2021/07/07 10:38:57;;;;;;;2.20;2.00;;;25.70;46.20;;;;;;5000098;28;20476;-89
2021/07/07 10:42:03;;;;;;;3.00;2.30;;;25.40;46.60;;;;;;5014868;28;20480;-89
2021/07/07 10:44:53;;;;;;;3.57;2.20;;;25.20;48.60;;;;;;5005608;28;20454;-89
2021/07/07 10:47:35;;;;;;;2.67;2.23;;;25.00;48.20;;;;;;4995993;28;20749;-89
2021/07/07 10:50:03;;;;;;;4.00;2.60;;;25.10;48.80;;;;;;4995576;28;20767;-89
2021/07/07 10:52:35;;;;;;;2.60;2.00;;;25.40;48.80;;;;;;4995826;28;20805;-89
2021/07/07 10:55:05;;;;;;;3.00;2.30;;;25.50;46.80;;;;;;4995617;28;20446;-89
2021/07/07 10:57:36;;;;;;;3.07;2.37;;;25.30;47.80;;;;;;4995932;28;20486;-89
2021/07/07 11:00:07;;;;;;;5.77;2.43;;;25.40;46.90;;;;;;4995398;28;20474;-89
2021/07/07 11:02:35;;;;;;;2.53;2.30;;;25.20;46.90;;;;;;5007624;28;20524;-89
2021/07/07 11:05:06;;;;;;;9.23;2.70;;;25.30;47.60;;;;;;5002863;28;20451;-89
2021/07/07 11:07:40;;;;;;;3.33;2.43;;;25.60;46.50;;;;;;4995258;28;20513;-89
2021/07/07 11:10:10;;;;;;;4.00;2.50;;;25.40;46.80;;;;;;4995507;28;20808;-89
2021/07/07 11:13:14;;;;;;;3.10;2.50;;;25.30;47.30;;;;;;4995278;28;20486;-89
2021/07/07 11:15:43;;;;;;;3.97;2.30;;;25.20;47.20;;;;;;4973154;28;20443;-89
2021/07/07 11:18:19;;;;;;;2.93;2.30;;;25.00;46.60;;;;;;4990945;28;20454;-89
2021/07/07 11:20:55;;;;;;;6.30;2.40;;;24.80;46.80;;;;;;4994364;28;20501;-89
2021/07/07 11:23:22;;;;;;;2.90;2.50;;;24.80;48.20;;;;;;4994310;28;20493;-89
2021/07/07 11:25:49;;;;;;;5.63;2.50;;;24.70;48.10;;;;;;4994436;28;20485;-89
2021/07/07 11:28:18;;;;;;;10.30;3.37;;;24.80;47.90;;;;;;4994420;28;20459;-89
2021/07/07 11:30:45;;;;;;;4.20;2.40;;;24.60;47.70;;;;;;4994152;28;20446;-89
2021/07/07 11:33:12;;;;;;;4.50;2.83;;;24.80;49.60;;;;;;4994717;28;20545;-89
2021/07/07 11:35:41;;;;;;;2.43;2.27;;;25.00;48.20;;;;;;5003722;28;20915;-89
2021/07/07 11:38:10;;;;;;;4.53;2.90;;;25.00;48.50;;;;;;5013509;28;20509;-89
2021/07/07 11:40:38;;;;;;;4.57;2.70;;;24.80;48.90;;;;;;5013698;28;20565;-89
2021/07/07 11:43:07;;;;;;;5.60;2.90;;;24.80;49.30;;;;;;5007869;28;20478;-89
2021/07/07 11:45:36;;;;;;;4.17;2.57;;;24.90;48.90;;;;;;5006123;28;20460;-89
2021/07/07 11:48:09;;;;;;;3.17;2.67;;;25.00;49.10;;;;;;5017557;28;20477;-89
2021/07/07 11:50:39;;;;;;;3.00;2.57;;;24.90;49.00;;;;;;5018222;28;20545;-89
2021/07/07 11:53:08;;;;;;;4.70;2.90;;;24.80;48.90;;;;;;5017355;28;20539;-89
2021/07/07 11:55:53;;;;;;;3.30;2.90;;;24.60;48.70;;;;;;5017967;28;20458;-89
2021/07/07 11:58:23;;;;;;;4.00;2.73;;;24.40;48.30;;;;;;5009643;28;20847;-89
2021/07/07 12:00:52;;;;;;;3.77;2.80;;;24.30;49.60;;;;;;5007332;28;20521;-89
2021/07/07 12:03:20;;;;;;;3.57;2.93;;;24.50;50.80;;;;;;5018586;28;20473;-89
2021/07/07 12:05:51;;;;;;;5.23;2.50;;;24.60;50.70;;;;;;5019423;28;20488;-90
2021/07/07 12:08:22;;;;;;;6.90;2.83;;;24.50;49.80;;;;;;5018970;28;20469;-89
2021/07/07 12:10:51;;;;;;;5.70;3.23;;;24.30;49.10;;;;;;5021017;28;20434;-89
2021/07/07 12:13:27;;;;;;;3.43;2.60;;;24.30;49.90;;;;;;5019313;28;20476;-89
2021/07/07 12:16:12;;;;;;;6.67;3.07;;;24.30;48.50;;;;;;5021583;28;20438;-89
2021/07/07 12:18:39;;;;;;;5.23;3.10;;;23.90;51.50;;;;;;5022372;28;20449;-89
2021/07/07 12:21:06;;;;;;;2.93;2.63;;;24.50;49.70;;;;;;5028945;28;20477;-89
2021/07/07 12:23:44;;;;;;;5.00;2.60;;;24.80;49.90;;;;;;5020751;28;20494;-89
2021/07/07 12:26:12;;;;;;;3.50;2.87;;;25.00;48.70;;;;;;4999600;28;20481;-89
2021/07/07 12:28:39;;;;;;;3.93;2.87;;;25.00;48.00;;;;;;4999108;28;20533;-89
2021/07/07 12:31:06;;;;;;;4.20;2.90;;;25.00;48.30;;;;;;4999128;28;20442;-89
2021/07/07 12:33:33;;;;;;;3.53;3.00;;;25.10;48.10;;;;;;4998538;28;20471;-89
2021/07/07 12:36:01;;;;;;;4.80;3.00;;;25.10;48.80;;;;;;4998464;28;20521;-89
2021/07/07 12:38:27;;;;;;;7.33;2.60;;;25.60;47.90;;;;;;4999096;28;20533;-89
2021/07/07 12:40:57;;;;;;;3.30;2.57;;;26.00;46.20;;;;;;5013001;28;20494;-89
2021/07/07 12:43:40;;;;;;;3.13;2.97;;;26.20;45.90;;;;;;5002635;28;20538;-89
2021/07/07 12:46:09;;;;;;;3.97;2.60;;;26.40;45.20;;;;;;5008415;28;20498;-89
2021/07/07 12:48:52;;;;;;;3.87;2.83;;;26.30;46.20;;;;;;5006708;28;20446;-89
2021/07/07 12:51:24;;;;;;;5.03;3.10;;;26.30;44.60;;;;;;5000251;28;20470;-89